Jonesville, Michigan
Current Conditions -  °F | °C
As of 6:55 AM on Monday 22 Dec 2014 (Local Time) from KJYM Reporting Station
Haze Haze  
Wind Chill: 17°   Ceiling: Unl
Heat Index: 25°   Visibility: 5mi
Dew Point: 23°   Wind: 7mph
Humidity: 92%   Direction: 110°ESE
Pressure: 30.03"   Gusts: NA
Location:  41.98°N, 84.66°W
Report Text: KJYM 221155Z AUTO 11006KT 5SM BR CLR M04/M05 A3003 RMK AO2 T10381049 11026 21042
Loading
Personal Weather Stations






























Interactive Weather Map New forecast layout! Learn more

10-Day Weather Forecast

Advertisements
Track Severe Weather on mobile